Time,TemperatureF,DewpointF,PressureIn,WindDirection,WindDirectionDegrees,WindSpeedMPH,WindSpeedGustMPH,Humidity,HourlyPrecipIn,Conditions,Clouds,dailyrainin,SoftwareType,DateUTC
2013-01-02 00:03:00,20.0,18.0,30.08,SSW,208,0.0,12.0,93,0.00,,,0.00,,2013-01-02 05:03:00,
2013-01-02 00:12:00,20.0,18.0,30.08,SSW,208,0.0,12.0,93,0.00,,,0.00,,2013-01-02 05:12:00,
2013-01-02 00:22:00,20.0,19.0,30.08,SSW,199,0.0,13.0,94,0.00,,,0.00,,2013-01-02 05:22:00,
2013-01-02 00:33:00,20.0,19.0,30.08,SSE,157,0.0,9.0,94,0.00,,,0.00,,2013-01-02 05:33:00,
2013-01-02 00:43:00,20.0,19.0,30.08,SSE,157,0.0,9.0,94,0.00,,,0.00,,2013-01-02 05:43:00,
2013-01-02 00:53:00,20.0,19.0,30.07,WSW,247,2.0,9.0,94,0.00,,,0.00,,2013-01-02 05:53:00,
2013-01-02 01:02:00,20.0,19.0,30.07,SSW,205,0.0,12.0,94,0.00,,,0.00,,2013-01-02 06:02:00,
2013-01-02 01:12:00,20.0,19.0,30.07,SSW,205,0.0,12.0,94,0.00,,,0.00,,2013-01-02 06:12:00,
2013-01-02 01:22:00,19.0,18.0,30.06,SW,225,0.0,11.0,94,0.00,,,0.00,,2013-01-02 06:22:00,
2013-01-02 01:32:00,19.0,18.0,30.06,WSW,240,3.0,13.0,94,0.00,,,0.00,,2013-01-02 06:32:00,
2013-01-02 01:42:00,19.0,18.0,30.06,WSW,240,3.0,13.0,94,0.00,,,0.00,,2013-01-02 06:42:00,
2013-01-02 01:53:00,19.0,18.0,30.07,South,182,0.0,11.0,95,0.00,,,0.00,,2013-01-02 06:53:00,
2013-01-02 02:02:00,19.0,18.0,30.07,South,182,0.0,11.0,95,0.00,,,0.00,,2013-01-02 07:02:00,
2013-01-02 02:12:00,19.0,18.0,30.07,South,182,0.0,11.0,95,0.00,,,0.00,,2013-01-02 07:12:00,
2013-01-02 02:22:00,19.0,18.0,30.07,South,182,0.0,11.0,95,0.00,,,0.00,,2013-01-02 07:22:00,
2013-01-02 05:53:00,16.0,15.0,30.09,South,171,0.0,11.0,95,0.00,,,0.00,,2013-01-02 10:53:00,
2013-01-02 06:02:00,16.0,15.0,30.09,South,171,0.0,0.0,96,0.00,,,0.00,,2013-01-02 11:02:00,
2013-01-02 06:12:00,16.0,15.0,30.09,South,171,0.0,0.0,96,0.00,,,0.00,,2013-01-02 11:12:00,
2013-01-02 06:22:00,16.0,15.0,30.10,SW,236,3.0,4.0,96,0.00,,,0.00,,2013-01-02 11:22:00,
2013-01-02 06:33:00,16.0,15.0,30.10,South,188,0.0,12.0,96,0.00,,,0.00,,2013-01-02 11:33:00,
2013-01-02 06:43:00,16.0,15.0,30.10,South,188,0.0,12.0,96,0.00,,,0.00,,2013-01-02 11:43:00,
2013-01-02 06:53:00,16.0,15.0,30.11,South,185,3.0,4.0,96,0.00,,,0.00,,2013-01-02 11:53:00,
2013-01-02 07:02:00,15.0,14.0,30.11,South,185,0.0,0.0,97,0.00,,,0.00,,2013-01-02 12:02:00,
2013-01-02 07:12:00,15.0,14.0,30.11,South,185,0.0,0.0,97,0.00,,,0.00,,2013-01-02 12:12:00,
2013-01-02 07:22:00,13.0,13.0,30.11,South,185,0.0,0.0,98,0.00,,,0.00,,2013-01-02 12:22:00,
2013-01-02 07:33:00,12.0,12.0,30.11,South,185,0.0,0.0,98,0.00,,,0.00,,2013-01-02 12:33:00,
2013-01-02 07:43:00,12.0,12.0,30.11,South,185,0.0,0.0,98,0.00,,,0.00,,2013-01-02 12:43:00,
2013-01-02 07:53:00,12.0,12.0,30.11,South,185,0.0,0.0,99,0.00,,,0.00,,2013-01-02 12:53:00,
2013-01-02 08:02:00,13.0,13.0,30.11,South,185,0.0,2.0,99,0.00,,,0.00,,2013-01-02 13:02:00,
2013-01-02 08:12:00,13.0,13.0,30.11,South,185,0.0,2.0,99,0.00,,,0.00,,2013-01-02 13:12:00,
2013-01-02 08:22:00,14.0,14.0,30.11,South,178,0.0,11.0,99,0.00,,,0.00,,2013-01-02 13:22:00,
2013-01-02 08:33:00,14.0,14.0,30.11,SSE,164,0.0,11.0,99,0.00,,,0.00,,2013-01-02 13:33:00,
2013-01-02 08:43:00,14.0,14.0,30.11,SSE,164,0.0,11.0,99,0.00,,,0.00,,2013-01-02 13:43:00,
2013-01-02 08:52:00,14.0,14.0,30.11,South,188,0.0,12.0,99,0.00,,,0.00,,2013-01-02 13:52:00,
2013-01-02 09:02:00,15.0,15.0,30.12,South,182,2.0,12.0,99,0.00,,,0.00,,2013-01-02 14:02:00,
2013-01-02 09:12:00,15.0,15.0,30.12,South,182,2.0,12.0,99,0.00,,,0.00,,2013-01-02 14:12:00,
2013-01-02 09:22:00,15.0,15.0,30.12,SW,215,0.0,0.0,99,0.00,,,0.00,,2013-01-02 14:22:00,
2013-01-02 09:33:00,15.0,15.0,30.12,SW,215,0.0,0.0,99,0.00,,,0.00,,2013-01-02 14:33:00,
2013-01-02 09:43:00,15.0,15.0,30.12,SW,215,0.0,0.0,99,0.00,,,0.00,,2013-01-02 14:43:00,
2013-01-02 09:53:00,15.0,15.0,30.12,SW,215,0.0,0.0,99,0.00,,,0.00,,2013-01-02 14:53:00,
2013-01-02 10:03:00,17.0,17.0,30.13,SSE,168,0.0,10.0,99,0.00,,,0.00,,2013-01-02 15:03:00,
2013-01-02 10:12:00,17.0,17.0,30.13,SSE,168,0.0,10.0,99,0.00,,,0.00,,2013-01-02 15:12:00,
2013-01-02 10:23:00,17.0,17.0,30.15,SSW,208,4.0,11.0,99,0.00,,,0.00,,2013-01-02 15:23:00,
2013-01-02 10:33:00,18.0,18.0,30.15,South,171,0.0,0.0,99,0.00,,,0.00,,2013-01-02 15:33:00,
2013-01-02 10:43:00,18.0,18.0,30.15,South,171,0.0,0.0,99,0.00,,,0.00,,2013-01-02 15:43:00,
2013-01-02 10:53:00,18.0,18.0,30.15,SSE,156,0.0,11.0,99,0.00,,,0.00,,2013-01-02 15:53:00,
2013-01-02 11:03:00,19.0,19.0,30.15,SW,233,1.0,2.0,99,0.00,,,0.00,,2013-01-02 16:03:00,
2013-01-02 11:13:00,19.0,19.0,30.15,SW,233,1.0,2.0,99,0.00,,,0.00,,2013-01-02 16:13:00,
2013-01-02 11:22:00,19.0,19.0,30.16,South,185,4.0,14.0,99,0.00,,,0.00,,2013-01-02 16:22:00,
2013-01-02 11:33:00,20.0,20.0,30.17,SW,233,0.0,10.0,99,0.00,,,0.00,,2013-01-02 16:33:00,
2013-01-02 11:43:00,20.0,20.0,30.17,SW,233,0.0,10.0,99,0.00,,,0.00,,2013-01-02 16:43:00,
2013-01-02 11:53:00,20.0,20.0,30.17,SSW,199,5.0,13.0,99,0.00,,,0.00,,2013-01-02 16:53:00,
2013-01-02 12:03:00,20.0,20.0,30.17,South,189,0.0,15.0,99,0.00,,,0.00,,2013-01-02 17:03:00,
2013-01-02 12:13:00,21.0,21.0,30.17,SSW,205,0.0,12.0,99,0.00,,,0.00,,2013-01-02 17:13:00,
2013-01-02 12:23:00,21.0,21.0,30.17,SSW,205,0.0,12.0,99,0.00,,,0.00,,2013-01-02 17:23:00,
2013-01-02 12:33:00,21.0,21.0,30.16,SSW,203,0.0,13.0,99,0.00,,,0.00,,2013-01-02 17:33:00,
2013-01-02 12:43:00,21.0,21.0,30.16,SSW,203,0.0,13.0,99,0.00,,,0.00,,2013-01-02 17:43:00,
2013-01-02 12:53:00,22.0,22.0,30.17,WSW,241,0.0,15.0,98,0.00,,,0.00,,2013-01-02 17:53:00,
2013-01-02 13:03:00,21.0,20.0,30.16,SSW,206,3.0,11.0,96,0.00,,,0.00,,2013-01-02 18:03:00,
2013-01-02 13:13:00,21.0,20.0,30.16,SSW,206,3.0,11.0,96,0.00,,,0.00,,2013-01-02 18:13:00,
2013-01-02 13:23:00,21.0,20.0,30.17,South,175,0.0,12.0,97,0.00,,,0.00,,2013-01-02 18:23:00,
2013-01-02 13:33:00,22.0,22.0,30.16,South,189,0.0,13.0,98,0.00,,,0.00,,2013-01-02 18:33:00,
2013-01-02 13:43:00,22.0,22.0,30.16,South,189,0.0,13.0,98,0.00,,,0.00,,2013-01-02 18:43:00,
2013-01-02 13:53:00,22.0,21.0,30.16,WSW,240,4.0,15.0,96,0.00,,,0.00,,2013-01-02 18:53:00,
2013-01-02 14:03:00,22.0,21.0,30.16,SW,233,0.0,15.0,96,0.00,,,0.00,,2013-01-02 19:03:00,
2013-01-02 14:12:00,22.0,21.0,30.16,SW,233,0.0,15.0,96,0.00,,,0.00,,2013-01-02 19:12:00,
2013-01-02 14:23:00,23.0,22.0,30.17,South,188,0.0,10.0,96,0.00,,,0.00,,2013-01-02 19:23:00,
2013-01-02 14:33:00,23.0,22.0,30.17,South,171,0.0,14.0,95,0.00,,,0.00,,2013-01-02 19:33:00,
2013-01-02 14:43:00,23.0,22.0,30.17,South,171,0.0,14.0,95,0.00,,,0.00,,2013-01-02 19:43:00,
2013-01-02 14:53:00,23.0,22.0,30.16,SW,230,5.0,14.0,94,0.00,,,0.00,,2013-01-02 19:53:00,
2013-01-02 15:03:00,23.0,22.0,30.16,SSW,213,4.0,4.0,95,0.00,,,0.00,,2013-01-02 20:03:00,
2013-01-02 15:12:00,23.0,22.0,30.16,SSW,213,4.0,4.0,95,0.00,,,0.00,,2013-01-02 20:12:00,
2013-01-02 15:23:00,23.0,21.0,30.16,SW,225,0.0,16.0,92,0.00,,,0.00,,2013-01-02 20:23:00,
2013-01-02 15:33:00,23.0,21.0,30.16,South,188,0.0,13.0,92,0.00,,,0.00,,2013-01-02 20:33:00,
2013-01-02 15:42:00,23.0,21.0,30.16,South,188,0.0,13.0,92,0.00,,,0.00,,2013-01-02 20:42:00,
2013-01-02 15:53:00,23.0,21.0,30.16,South,174,0.0,11.0,92,0.00,,,0.00,,2013-01-02 20:53:00,
2013-01-02 16:03:00,24.0,22.0,30.16,South,187,0.0,2.0,90,0.00,,,0.00,,2013-01-02 21:03:00,
2013-01-02 16:13:00,24.0,22.0,30.16,South,187,0.0,2.0,90,0.00,,,0.00,,2013-01-02 21:13:00,
2013-01-02 16:22:00,23.0,20.0,30.18,SSE,151,0.0,6.0,89,0.00,,,0.00,,2013-01-02 21:22:00,
2013-01-02 16:33:00,21.0,19.0,30.18,SW,220,0.0,15.0,90,0.00,,,0.00,,2013-01-02 21:33:00,
2013-01-02 16:43:00,21.0,19.0,30.18,SW,220,0.0,15.0,90,0.00,,,0.00,,2013-01-02 21:43:00,
2013-01-02 16:53:00,21.0,19.0,30.18,SSE,147,0.0,14.0,90,0.00,,,0.00,,2013-01-02 21:53:00,
2013-01-02 17:03:00,20.0,18.0,30.17,SSW,209,3.0,14.0,90,0.00,,,0.00,,2013-01-02 22:03:00,
2013-01-02 17:12:00,20.0,18.0,30.17,SSW,209,3.0,14.0,90,0.00,,,0.00,,2013-01-02 22:12:00,
2013-01-02 17:22:00,19.0,17.0,30.18,SW,216,0.0,0.0,91,0.00,,,0.00,,2013-01-02 22:22:00,
2013-01-02 17:32:00,18.0,16.0,30.17,SW,216,0.0,0.0,91,0.00,,,0.00,,2013-01-02 22:32:00,
2013-01-02 17:43:00,18.0,16.0,30.17,SW,216,0.0,0.0,91,0.00,,,0.00,,2013-01-02 22:43:00,
2013-01-02 17:53:00,17.0,15.0,30.17,SW,216,0.0,0.0,92,0.00,,,0.00,,2013-01-02 22:53:00,
2013-01-02 18:03:00,16.0,14.0,30.18,SW,216,0.0,0.0,93,0.00,,,0.00,,2013-01-02 23:03:00,
2013-01-02 18:13:00,16.0,15.0,30.19,SW,216,0.0,0.0,95,0.00,,,0.00,,2013-01-02 23:13:00,
2013-01-02 18:23:00,16.0,15.0,30.19,SW,216,0.0,0.0,95,0.00,,,0.00,,2013-01-02 23:23:00,
2013-01-02 18:33:00,17.0,16.0,30.19,SW,216,0.0,0.0,96,0.00,,,0.00,,2013-01-02 23:33:00,
2013-01-02 18:43:00,17.0,16.0,30.19,SW,216,0.0,0.0,96,0.00,,,0.00,,2013-01-02 23:43:00,
2013-01-02 18:53:00,17.0,16.0,30.19,SW,216,0.0,0.0,96,0.00,,,0.00,,2013-01-02 23:53:00,
2013-01-02 19:02:00,17.0,16.0,30.19,SW,216,0.0,0.0,96,0.00,,,0.00,,2013-01-03 00:02:00,
2013-01-02 19:12:00,17.0,16.0,30.19,SW,216,0.0,0.0,96,0.00,,,0.00,,2013-01-03 00:12:00,
2013-01-02 19:22:00,18.0,17.0,30.20,SW,216,0.0,0.0,96,0.00,,,0.00,,2013-01-03 00:22:00,
2013-01-02 19:38:00,18.0,17.0,30.20,South,171,0.0,11.0,96,0.00,,,0.00,,2013-01-03 00:38:00,
2013-01-02 19:53:00,18.0,17.0,30.20,WSW,243,0.0,15.0,96,0.00,,,0.00,,2013-01-03 00:53:00,
2013-01-02 20:02:00,18.0,17.0,30.20,WSW,243,0.0,0.0,95,0.00,,,0.00,,2013-01-03 01:02:00,
2013-01-02 20:12:00,18.0,17.0,30.20,WSW,243,0.0,0.0,95,0.00,,,0.00,,2013-01-03 01:12:00,
2013-01-02 20:22:00,17.0,16.0,30.20,SW,230,0.0,0.0,95,0.00,,,0.00,,2013-01-03 01:22:00,
2013-01-02 20:32:00,16.0,15.0,30.20,SW,230,0.0,0.0,95,0.00,,,0.00,,2013-01-03 01:32:00,
2013-01-02 20:43:00,16.0,15.0,30.20,SW,230,0.0,0.0,95,0.00,,,0.00,,2013-01-03 01:43:00,
2013-01-02 20:53:00,15.0,14.0,30.20,SW,230,0.0,0.0,96,0.00,,,0.00,,2013-01-03 01:53:00,
2013-01-02 21:02:00,14.0,13.0,30.20,SW,230,0.0,0.0,97,0.00,,,0.00,,2013-01-03 02:02:00,
2013-01-02 21:12:00,14.0,13.0,30.20,SW,230,0.0,0.0,97,0.00,,,0.00,,2013-01-03 02:12:00,
2013-01-02 21:22:00,13.0,13.0,30.20,SW,230,0.0,0.0,98,0.00,,,0.00,,2013-01-03 02:22:00,
2013-01-02 21:33:00,13.0,13.0,30.20,SW,230,0.0,0.0,98,0.00,,,0.00,,2013-01-03 02:33:00,
2013-01-02 21:43:00,13.0,13.0,30.20,SW,230,0.0,0.0,98,0.00,,,0.00,,2013-01-03 02:43:00,
2013-01-02 21:52:00,13.0,13.0,30.20,SW,230,0.0,0.0,98,0.00,,,0.00,,2013-01-03 02:52:00,
2013-01-02 22:02:00,12.0,12.0,30.20,SW,230,0.0,0.0,99,0.00,,,0.00,,2013-01-03 03:02:00,
2013-01-02 22:12:00,12.0,12.0,30.21,SW,230,0.0,0.0,99,0.00,,,0.00,,2013-01-03 03:12:00,
2013-01-02 22:22:00,12.0,12.0,30.21,SW,230,0.0,0.0,99,0.00,,,0.00,,2013-01-03 03:22:00,
2013-01-02 22:46:00,12.0,12.0,30.21,SW,230,0.0,0.0,99,0.00,,,0.00,,2013-01-03 03:46:00,
2013-01-02 22:53:00,12.0,12.0,30.21,SW,230,0.0,0.0,99,0.00,,,0.00,,2013-01-03 03:53:00,
2013-01-02 23:02:00,12.0,12.0,30.20,SW,230,0.0,0.0,99,0.00,,,0.00,,2013-01-03 04:02:00,
2013-01-02 23:12:00,12.0,12.0,30.20,SW,230,0.0,0.0,99,0.00,,,0.00,,2013-01-03 04:12:00,
2013-01-02 23:22:00,14.0,14.0,30.20,SW,230,0.0,0.0,99,0.00,,,0.00,,2013-01-03 04:22:00,
2013-01-02 23:32:00,14.0,14.0,30.20,SW,230,0.0,0.0,99,0.00,,,0.00,,2013-01-03 04:32:00,
2013-01-02 23:43:00,14.0,14.0,30.20,SW,230,0.0,0.0,99,0.00,,,0.00,,2013-01-03 04:43:00,
2013-01-02 23:52:00,15.0,15.0,30.20,SW,230,0.0,0.0,99,0.00,,,0.00,,2013-01-03 04:52:00,